createdAt,value
2018-12-18T00:03:29.885Z,79.79
2018-12-18T00:05:55.982Z,79.64
2018-12-18T00:08:22.027Z,79.45
2018-12-18T00:10:50.269Z,79.46
2018-12-18T00:13:16.325Z,79.53
2018-12-18T00:15:42.352Z,79.66
2018-12-18T00:18:08.575Z,79.60
2018-12-18T00:20:34.617Z,79.60
2018-12-18T00:23:00.682Z,79.61
2018-12-18T00:25:27.131Z,79.55
2018-12-18T00:27:53.170Z,79.35
2018-12-18T00:30:19.200Z,79.42
2018-12-18T00:32:45.428Z,79.53
2018-12-18T00:35:11.523Z,79.55
2018-12-18T00:37:37.589Z,79.62
2018-12-18T00:40:05.316Z,79.67
2018-12-18T00:42:31.674Z,79.60
2018-12-18T00:44:57.746Z,79.54
2018-12-18T00:47:23.882Z,79.45
2018-12-18T00:49:49.905Z,79.70
2018-12-18T00:52:15.952Z,79.61
2018-12-18T00:54:42.095Z,79.46
2018-12-18T00:57:08.137Z,79.58
2018-12-18T00:59:34.186Z,79.59
2018-12-18T01:02:00.343Z,79.66
2018-12-18T01:04:26.756Z,79.58
2018-12-18T01:06:52.847Z,79.54
2018-12-18T01:09:19.210Z,79.62
2018-12-18T01:11:45.354Z,79.63
2018-12-18T01:14:11.438Z,79.59
2018-12-18T01:16:37.680Z,79.78
2018-12-18T01:19:10.695Z,79.59
2018-12-18T01:21:36.750Z,79.41
2018-12-18T01:24:03.127Z,79.65
2018-12-18T01:26:29.177Z,79.48
2018-12-18T01:28:55.214Z,79.60
2018-12-18T01:31:21.539Z,79.77
2018-12-18T01:33:47.637Z,79.73
2018-12-18T01:36:13.741Z,79.75
2018-12-18T01:38:40.000Z,79.70
2018-12-18T01:41:06.090Z,79.63
2018-12-18T01:43:32.367Z,79.74
2018-12-18T01:45:58.737Z,79.55
2018-12-18T01:48:24.806Z,79.47
2018-12-18T01:50:50.922Z,79.63
2018-12-18T01:53:17.245Z,79.77
2018-12-18T01:55:43.351Z,79.72
2018-12-18T01:58:09.431Z,79.81
2018-12-18T02:00:35.572Z,79.55
2018-12-18T02:03:01.644Z,79.66
2018-12-18T02:05:27.674Z,79.88
2018-12-18T02:07:53.961Z,79.79
2018-12-18T02:10:19.993Z,79.69
2018-12-18T02:12:46.084Z,79.75
2018-12-18T02:15:12.554Z,79.56
2018-12-18T02:17:38.632Z,79.92
2018-12-18T02:20:05.726Z,79.85
2018-12-18T02:22:31.962Z,79.83
2018-12-18T02:24:58.071Z,79.57
2018-12-18T02:27:24.130Z,79.75
2018-12-18T02:29:50.422Z,79.52
2018-12-18T02:32:16.498Z,79.69
2018-12-18T02:34:42.557Z,79.64
2018-12-18T02:37:08.912Z,79.72
2018-12-18T02:39:34.911Z,79.91
2018-12-18T02:42:00.941Z,79.74
2018-12-18T02:44:27.382Z,79.70
2018-12-18T02:46:53.603Z,79.77
2018-12-18T02:49:19.722Z,79.84
2018-12-18T02:51:46.032Z,79.76
2018-12-18T02:54:12.222Z,79.87
2018-12-18T02:56:38.274Z,79.95
2018-12-18T02:59:04.587Z,79.81
2018-12-18T03:01:30.651Z,79.83
2018-12-18T03:03:56.718Z,79.97
2018-12-18T03:06:23.098Z,80.04
2018-12-18T03:08:49.158Z,80.06
2018-12-18T03:11:17.265Z,80.00
2018-12-18T03:13:43.479Z,79.70
2018-12-18T03:16:09.548Z,79.80
2018-12-18T03:18:35.628Z,79.98
2018-12-18T03:21:01.890Z,79.71
2018-12-18T03:23:27.951Z,79.78
2018-12-18T03:25:53.958Z,79.77
2018-12-18T03:28:20.226Z,79.73
2018-12-18T03:30:46.307Z,79.94
2018-12-18T03:33:12.336Z,79.71
2018-12-18T03:35:38.634Z,79.60
2018-12-18T03:38:04.671Z,79.78
2018-12-18T03:40:30.878Z,79.67
2018-12-18T03:42:57.205Z,79.58
2018-12-18T03:45:23.506Z,79.53
2018-12-18T03:47:49.566Z,79.69
2018-12-18T03:50:15.763Z,79.92
2018-12-18T03:52:41.812Z,79.78
2018-12-18T03:55:07.890Z,79.53
2018-12-18T03:57:34.217Z,79.73
2018-12-18T04:00:00.307Z,79.52
2018-12-18T04:02:26.596Z,79.78
2018-12-18T04:04:52.761Z,79.61
2018-12-18T04:07:18.825Z,79.70
2018-12-18T04:09:45.126Z,79.73
2018-12-18T04:12:13.379Z,79.76
2018-12-18T04:14:39.445Z,79.64
2018-12-18T04:17:05.503Z,79.71
2018-12-18T04:19:31.824Z,79.65
2018-12-18T04:21:57.862Z,79.62
2018-12-18T04:24:23.902Z,79.79
2018-12-18T04:26:50.184Z,79.55
2018-12-18T04:29:16.203Z,79.67
2018-12-18T04:31:42.326Z,79.62
2018-12-18T04:34:08.643Z,79.62
2018-12-18T04:36:34.853Z,79.64
2018-12-18T04:39:00.888Z,79.62
2018-12-18T04:41:28.034Z,79.64
2018-12-18T04:43:54.206Z,79.47
2018-12-18T04:46:20.526Z,79.50
2018-12-18T04:48:46.782Z,79.35
2018-12-18T04:51:12.815Z,79.39
2018-12-18T04:53:38.887Z,79.35
2018-12-18T04:56:05.204Z,79.50
2018-12-18T04:58:31.251Z,79.57
2018-12-18T05:00:57.325Z,79.47
2018-12-18T05:03:23.615Z,79.62
2018-12-18T05:05:49.698Z,79.56
2018-12-18T05:08:15.778Z,79.58
2018-12-18T05:10:42.054Z,79.67
2018-12-18T05:13:08.105Z,79.33
2018-12-18T05:15:34.184Z,79.41
2018-12-18T05:18:00.299Z,79.44
2018-12-18T05:20:26.395Z,79.40
2018-12-18T05:22:52.436Z,79.23
2018-12-18T05:25:18.849Z,79.54
2018-12-18T05:27:44.957Z,79.33
2018-12-18T05:30:11.056Z,79.42
2018-12-18T05:32:37.367Z,79.59
2018-12-18T05:35:03.658Z,79.54
2018-12-18T05:37:29.704Z,79.35
2018-12-18T05:39:55.904Z,79.46
2018-12-18T05:42:28.868Z,79.36
2018-12-18T05:44:54.897Z,79.57
2018-12-18T05:47:21.136Z,79.97
2018-12-18T05:49:47.158Z,79.39
2018-12-18T05:52:13.200Z,79.37
2018-12-18T05:54:39.566Z,79.80
2018-12-18T05:57:05.614Z,79.37
2018-12-18T05:59:31.692Z,79.58
2018-12-18T06:01:57.804Z,79.42
2018-12-18T06:04:23.826Z,79.51
2018-12-18T06:06:49.876Z,79.47
2018-12-18T06:09:16.152Z,79.44
2018-12-18T06:11:42.174Z,79.63
2018-12-18T06:14:08.217Z,79.54
2018-12-18T06:16:35.147Z,79.68
2018-12-18T06:19:01.209Z,79.36
2018-12-18T06:21:27.259Z,79.57
2018-12-18T06:23:53.440Z,79.37
2018-12-18T06:26:19.475Z,79.41
2018-12-18T06:28:45.516Z,79.44
2018-12-18T06:31:11.910Z,79.60
2018-12-18T06:33:37.936Z,79.72
2018-12-18T06:36:04.122Z,79.76
2018-12-18T06:38:30.341Z,79.49
2018-12-18T06:40:56.359Z,79.66
2018-12-18T06:43:22.406Z,79.71
2018-12-18T06:45:55.520Z,79.31
2018-12-18T06:48:21.706Z,79.50
2018-12-18T06:50:47.767Z,79.29
2018-12-18T06:53:14.005Z,79.41
2018-12-18T06:55:40.167Z,79.51
2018-12-18T06:58:06.243Z,79.37
2018-12-18T07:00:32.453Z,79.37
2018-12-18T07:02:58.505Z,79.38
2018-12-18T07:05:24.534Z,79.49
2018-12-18T07:07:57.205Z,79.60
2018-12-18T07:10:18.877Z,79.42
2018-12-18T07:12:44.928Z,79.39
2018-12-18T07:15:11.457Z,79.40
2018-12-18T07:17:37.539Z,79.47
2018-12-18T07:20:03.849Z,79.46
2018-12-18T07:22:30.038Z,79.51
2018-12-18T07:24:56.075Z,79.40
2018-12-18T07:27:22.151Z,79.41
2018-12-18T07:29:48.516Z,79.38
2018-12-18T07:32:14.596Z,79.37
2018-12-18T07:34:40.654Z,79.33
2018-12-18T07:37:06.886Z,79.46
2018-12-18T07:39:32.965Z,79.85
2018-12-18T07:41:59.013Z,79.49
2018-12-18T07:44:25.278Z,79.46
2018-12-18T07:46:51.304Z,79.36
2018-12-18T07:49:17.560Z,79.38
2018-12-18T07:51:43.867Z,79.35
2018-12-18T07:54:09.918Z,79.47
2018-12-18T07:56:35.975Z,79.45
2018-12-18T07:59:02.246Z,79.41
2018-12-18T08:01:28.333Z,79.38
2018-12-18T08:03:54.394Z,79.23
2018-12-18T08:06:20.595Z,79.22
2018-12-18T08:08:46.665Z,79.30
2018-12-18T08:11:12.762Z,79.18
2018-12-18T08:13:38.989Z,79.35
2018-12-18T08:16:05.047Z,79.43
2018-12-18T08:18:31.099Z,79.24
2018-12-18T08:20:57.229Z,79.34
2018-12-18T08:23:23.273Z,79.28
2018-12-18T08:25:49.460Z,79.25
2018-12-18T08:28:15.686Z,79.34
2018-12-18T08:30:41.776Z,79.44
2018-12-18T08:33:07.822Z,79.17
2018-12-18T08:35:36.659Z,79.43
2018-12-18T08:38:02.267Z,79.15
2018-12-18T08:40:28.320Z,79.19
2018-12-18T08:42:54.592Z,79.13
2018-12-18T08:45:20.632Z,79.30
2018-12-18T08:47:46.713Z,79.32
2018-12-18T08:50:14.083Z,79.25
2018-12-18T08:52:40.135Z,79.38
2018-12-18T08:55:06.308Z,79.51
2018-12-18T08:57:32.545Z,79.27
2018-12-18T08:59:58.636Z,79.36
2018-12-18T09:02:24.729Z,79.37
2018-12-18T09:04:51.102Z,79.17
2018-12-18T09:07:17.146Z,79.37
2018-12-18T09:09:43.195Z,79.45
2018-12-18T09:12:11.547Z,79.33
2018-12-18T09:14:39.669Z,79.38
2018-12-18T09:17:07.133Z,79.27
2018-12-18T09:19:33.409Z,79.28
2018-12-18T09:21:59.458Z,79.30
2018-12-18T09:24:25.529Z,79.29
2018-12-18T09:26:51.909Z,79.27
2018-12-18T09:29:18.000Z,79.42
2018-12-18T09:31:44.066Z,79.39
2018-12-18T09:34:10.307Z,79.32
2018-12-18T09:36:36.370Z,79.55
2018-12-18T09:39:25.223Z,79.45
2018-12-18T09:41:53.299Z,79.52
2018-12-18T09:44:19.352Z,79.32
2018-12-18T09:46:45.720Z,79.15
2018-12-18T09:49:11.786Z,79.29
2018-12-18T09:51:38.361Z,79.31
2018-12-18T09:57:00.348Z,79.41
2018-12-18T09:59:26.920Z,79.33
2018-12-18T10:01:52.988Z,79.25
2018-12-18T10:04:19.104Z,79.33
2018-12-18T10:06:45.307Z,79.48
2018-12-18T10:09:11.492Z,79.22
2018-12-18T10:11:37.576Z,79.34
2018-12-18T10:14:03.960Z,79.32
2018-12-18T10:16:30.064Z,79.08
2018-12-18T10:18:56.156Z,79.29
2018-12-18T10:21:22.319Z,79.33
2018-12-18T10:23:48.481Z,79.24
2018-12-18T10:26:14.543Z,79.13
2018-12-18T10:28:40.860Z,79.33
2018-12-18T10:31:06.921Z,79.50
2018-12-18T10:36:05.334Z,79.33
2018-12-18T10:38:31.462Z,79.27
2018-12-18T10:40:57.544Z,79.42
2018-12-18T10:43:23.816Z,79.34
2018-12-18T10:45:49.893Z,79.41
2018-12-18T10:48:16.045Z,79.47
2018-12-18T10:50:42.349Z,79.43
2018-12-18T10:53:08.741Z,79.69
2018-12-18T10:55:34.917Z,79.60
2018-12-18T10:58:01.200Z,79.37
2018-12-18T11:00:33.366Z,79.52
2018-12-18T11:02:59.519Z,79.52
2018-12-18T11:05:25.855Z,79.58
2018-12-18T11:07:51.937Z,79.65
2018-12-18T11:10:18.041Z,79.51
2018-12-18T11:12:46.455Z,79.25
2018-12-18T11:15:12.644Z,79.47
2018-12-18T11:17:38.751Z,79.31
2018-12-18T11:20:05.386Z,79.47
2018-12-18T11:22:31.417Z,79.41
2018-12-18T11:24:58.323Z,79.46
2018-12-18T11:27:24.620Z,79.39
2018-12-18T11:29:50.688Z,79.56
2018-12-18T11:32:16.778Z,79.37
2018-12-18T11:34:42.949Z,79.62
2018-12-18T11:37:09.045Z,79.37
2018-12-18T11:39:35.159Z,79.17
2018-12-18T11:42:01.549Z,79.39
2018-12-18T11:44:27.598Z,79.38
2018-12-18T11:46:53.706Z,79.28
2018-12-18T11:49:19.975Z,79.15
2018-12-18T11:51:46.059Z,79.41
2018-12-18T11:54:12.147Z,79.20
2018-12-18T11:56:38.570Z,79.36
2018-12-18T11:59:04.618Z,79.37
2018-12-18T12:01:30.677Z,79.42
2018-12-18T12:03:56.923Z,79.13
2018-12-18T12:06:23.292Z,79.19
2018-12-18T12:08:49.415Z,79.28
2018-12-18T12:11:15.738Z,79.26
2018-12-18T12:16:37.630Z,79.40
2018-12-18T12:19:03.871Z,79.39
2018-12-18T12:21:29.926Z,79.12
2018-12-18T12:23:56.451Z,79.26
2018-12-18T12:26:28.546Z,79.32
2018-12-18T12:28:54.617Z,79.29
2018-12-18T12:31:20.916Z,79.32
2018-12-18T12:33:47.006Z,79.26
2018-12-18T12:36:13.090Z,79.30
2018-12-18T12:38:39.317Z,79.32
2018-12-18T12:41:05.363Z,79.44
2018-12-18T12:43:31.475Z,79.51
2018-12-18T12:45:57.836Z,79.32
2018-12-18T12:48:25.909Z,79.40
2018-12-18T12:50:51.957Z,79.24
2018-12-18T12:53:18.468Z,79.33
2018-12-18T12:55:44.507Z,79.28
2018-12-18T12:58:10.584Z,79.07
2018-12-18T13:00:36.879Z,79.14
2018-12-18T13:03:03.003Z,79.29
2018-12-18T13:05:29.061Z,79.23
2018-12-18T13:07:56.233Z,79.30
2018-12-18T13:10:22.447Z,79.30
2018-12-18T13:12:48.470Z,79.13
2018-12-18T13:15:14.697Z,79.20
2018-12-18T13:17:40.768Z,79.14
2018-12-18T13:20:06.862Z,79.20
2018-12-18T13:22:33.188Z,79.25
2018-12-18T13:24:59.386Z,79.21
2018-12-18T13:27:25.410Z,79.02
2018-12-18T13:29:51.936Z,79.32
2018-12-18T13:32:18.026Z,79.14
2018-12-18T13:34:44.100Z,79.03
2018-12-18T13:37:10.427Z,79.08
2018-12-18T13:39:36.505Z,79.12
2018-12-18T13:42:02.664Z,79.04
2018-12-18T13:44:28.894Z,79.14
2018-12-18T13:46:54.949Z,78.97
2018-12-18T13:49:21.004Z,79.17
2018-12-18T13:51:47.093Z,79.10
2018-12-18T13:54:13.134Z,79.23
2018-12-18T13:56:39.220Z,79.02
2018-12-18T13:59:05.517Z,78.93
2018-12-18T14:01:31.583Z,79.10
2018-12-18T14:03:57.687Z,79.09
2018-12-18T14:06:23.990Z,78.89
2018-12-18T14:08:50.015Z,79.10
2018-12-18T14:11:16.090Z,79.03
2018-12-18T14:13:42.319Z,79.00
2018-12-18T14:16:08.377Z,78.90
2018-12-18T14:18:34.545Z,78.88
2018-12-18T14:21:00.828Z,78.88
2018-12-18T14:26:24.315Z,78.53
2018-12-18T14:28:50.602Z,78.98
2018-12-18T14:31:16.647Z,79.07
2018-12-18T14:33:42.801Z,78.85
2018-12-18T14:36:08.887Z,78.87
2018-12-18T14:38:37.968Z,78.96
2018-12-18T14:41:04.307Z,78.88
2018-12-18T14:43:30.334Z,78.86
2018-12-18T14:45:56.369Z,78.89
2018-12-18T14:48:22.694Z,78.77
2018-12-18T14:50:48.749Z,78.89
2018-12-18T14:53:14.820Z,79.12
2018-12-18T14:55:41.153Z,79.04
2018-12-18T14:58:07.224Z,79.12
2018-12-18T15:00:33.320Z,78.92
2018-12-18T15:02:59.665Z,78.98
2018-12-18T15:05:25.965Z,78.95
2018-12-18T15:10:47.900Z,78.96
2018-12-18T15:13:14.134Z,78.73
2018-12-18T15:15:40.200Z,78.93
2018-12-18T15:18:06.310Z,78.92
2018-12-18T15:20:32.565Z,79.13
2018-12-18T15:22:58.632Z,79.13
2018-12-18T15:25:24.693Z,78.75
2018-12-18T15:27:51.007Z,79.20
2018-12-18T15:30:17.258Z,78.84
2018-12-18T15:32:43.318Z,78.98
2018-12-18T15:35:09.590Z,78.97
2018-12-18T15:37:36.099Z,78.82
2018-12-18T15:40:02.922Z,79.19
2018-12-18T15:42:29.196Z,79.16
2018-12-18T15:44:55.270Z,78.96
2018-12-18T15:47:21.374Z,78.84
2018-12-18T15:49:47.547Z,78.92
2018-12-18T15:52:13.605Z,78.96
2018-12-18T15:54:39.651Z,79.21
2018-12-18T15:57:05.830Z,78.81
2018-12-18T15:59:31.915Z,78.70
2018-12-18T16:01:57.976Z,78.81
2018-12-18T16:04:24.292Z,78.94
2018-12-18T16:06:50.327Z,78.96
2018-12-18T16:09:16.413Z,78.77
2018-12-18T16:11:42.605Z,79.06
2018-12-18T16:14:08.649Z,78.96
2018-12-18T16:16:34.721Z,78.84
2018-12-18T16:19:01.083Z,78.91
2018-12-18T16:21:27.206Z,78.93
2018-12-18T16:23:53.387Z,79.00
2018-12-18T16:26:19.725Z,79.06
2018-12-18T16:28:45.772Z,78.97
2018-12-18T16:31:11.950Z,79.01
2018-12-18T16:33:38.166Z,79.28
2018-12-18T16:36:04.224Z,78.96
2018-12-18T16:38:30.276Z,79.02
2018-12-18T16:40:56.501Z,79.12
2018-12-18T16:43:22.589Z,78.98
2018-12-18T16:45:48.644Z,79.04
2018-12-18T16:48:14.868Z,79.06
2018-12-18T16:50:40.960Z,78.76
2018-12-18T16:53:07.009Z,78.95
2018-12-18T16:55:33.205Z,78.92
2018-12-18T16:57:59.276Z,79.01
2018-12-18T17:00:25.307Z,78.86
2018-12-18T17:02:51.526Z,78.96
2018-12-18T17:05:17.611Z,79.16
2018-12-18T17:07:43.651Z,79.00
2018-12-18T17:10:09.817Z,79.11
2018-12-18T17:12:35.823Z,78.79
2018-12-18T17:15:02.176Z,78.79
2018-12-18T17:17:28.500Z,78.99
2018-12-18T17:19:54.540Z,79.01
2018-12-18T17:22:20.676Z,79.21
2018-12-18T17:24:46.900Z,78.84
2018-12-18T17:27:12.955Z,78.86
2018-12-18T17:29:38.976Z,78.96
2018-12-18T17:32:05.341Z,78.69
2018-12-18T17:34:31.417Z,79.02
2018-12-18T17:36:57.490Z,78.82
2018-12-18T17:39:23.772Z,78.81
2018-12-18T17:41:49.832Z,78.77
2018-12-18T17:44:15.957Z,78.91
2018-12-18T17:46:42.280Z,78.94
2018-12-18T17:49:08.290Z,78.94
2018-12-18T17:51:34.347Z,78.87
2018-12-18T17:54:00.596Z,78.85
2018-12-18T17:56:26.644Z,78.84
2018-12-18T17:58:52.719Z,78.83
2018-12-18T18:01:19.021Z,78.89
2018-12-18T18:03:45.114Z,79.14
2018-12-18T18:06:11.165Z,78.63
2018-12-18T18:08:37.451Z,78.77
2018-12-18T18:11:03.561Z,78.72
2018-12-18T18:13:29.661Z,78.68
2018-12-18T18:15:55.983Z,78.79
2018-12-18T18:18:22.824Z,78.73
2018-12-18T18:20:48.874Z,78.70
2018-12-18T18:23:15.019Z,78.86
2018-12-18T18:25:41.265Z,78.87
2018-12-18T18:28:07.285Z,78.82
2018-12-18T18:30:33.538Z,78.67
2018-12-18T18:32:59.603Z,78.61
2018-12-18T18:35:25.667Z,78.64
2018-12-18T18:37:51.893Z,78.38
2018-12-18T18:40:17.936Z,78.51
2018-12-18T18:42:43.981Z,78.47
2018-12-18T18:45:10.218Z,78.50
2018-12-18T18:47:36.308Z,78.45
2018-12-18T18:50:03.714Z,78.48
2018-12-18T18:52:29.970Z,78.65
2018-12-18T18:54:56.016Z,78.56
2018-12-18T18:57:22.096Z,78.68
2018-12-18T18:59:48.434Z,78.46
2018-12-18T19:02:14.514Z,78.46
2018-12-18T19:04:40.548Z,78.60
2018-12-18T19:07:06.817Z,78.54
2018-12-18T19:09:32.899Z,78.67
2018-12-18T19:11:58.937Z,78.78
2018-12-18T19:14:25.190Z,78.42
2018-12-18T19:16:51.231Z,78.60
2018-12-18T19:19:17.310Z,78.28
2018-12-18T19:21:43.601Z,78.52
2018-12-18T19:24:09.625Z,78.21
2018-12-18T19:26:35.690Z,78.41
2018-12-18T19:29:01.924Z,78.59
2018-12-18T19:31:28.000Z,78.44
2018-12-18T19:33:54.034Z,78.56
2018-12-18T19:36:20.331Z,78.38
2018-12-18T19:38:46.394Z,78.52
2018-12-18T19:41:12.440Z,78.61
2018-12-18T19:43:38.691Z,78.64
2018-12-18T19:46:04.746Z,78.55
2018-12-18T19:48:31.166Z,78.57
2018-12-18T19:50:57.447Z,78.60
2018-12-18T19:53:23.511Z,78.53
2018-12-18T19:55:49.555Z,78.59
2018-12-18T19:58:15.916Z,78.60
2018-12-18T20:00:41.971Z,78.55
2018-12-18T20:03:08.156Z,78.52
2018-12-18T20:05:34.481Z,78.32
2018-12-18T20:08:00.564Z,78.33
2018-12-18T20:10:26.606Z,78.46
2018-12-18T20:12:52.829Z,78.47
2018-12-18T20:15:18.897Z,78.62
2018-12-18T20:17:45.008Z,78.65
2018-12-18T20:20:11.451Z,78.63
2018-12-18T20:22:37.530Z,78.66
2018-12-18T20:25:04.487Z,78.45
2018-12-18T20:27:30.743Z,78.52
2018-12-18T20:29:56.795Z,78.55
2018-12-18T20:32:22.856Z,78.61
2018-12-18T20:34:49.082Z,78.37
2018-12-18T20:37:18.237Z,78.46
2018-12-18T20:39:43.213Z,78.26
2018-12-18T20:42:09.451Z,78.30
2018-12-18T20:44:35.485Z,78.21
2018-12-18T20:47:01.623Z,78.11
2018-12-18T20:49:27.826Z,78.23
2018-12-18T20:51:53.871Z,78.19
2018-12-18T20:54:19.912Z,78.17
2018-12-18T20:56:46.315Z,78.24
2018-12-18T20:59:12.445Z,78.27
2018-12-18T21:01:38.480Z,78.37
2018-12-18T21:04:04.617Z,78.03
2018-12-18T21:06:30.715Z,78.24
2018-12-18T21:08:56.743Z,78.17
2018-12-18T21:11:22.992Z,78.09
2018-12-18T21:13:49.075Z,78.28
2018-12-18T21:16:15.155Z,78.29
2018-12-18T21:18:41.460Z,78.35
2018-12-18T21:21:07.539Z,78.27
2018-12-18T21:23:33.621Z,78.08
2018-12-18T21:25:59.785Z,78.43
2018-12-18T21:28:25.999Z,78.08
2018-12-18T21:30:52.058Z,78.40
2018-12-18T21:33:18.211Z,78.39
2018-12-18T21:35:44.295Z,78.27
2018-12-18T21:38:10.356Z,78.14
2018-12-18T21:40:36.590Z,78.21
2018-12-18T21:43:02.637Z,78.23
2018-12-18T21:45:28.735Z,78.15
2018-12-18T21:47:54.907Z,78.20
2018-12-18T21:50:20.975Z,78.54
2018-12-18T21:52:47.029Z,78.39
2018-12-18T21:55:13.257Z,78.12
2018-12-18T21:57:39.288Z,77.89
2018-12-18T22:00:07.606Z,78.13
2018-12-18T22:02:33.816Z,78.09
2018-12-18T22:04:59.913Z,78.16
2018-12-18T22:07:26.059Z,78.17
2018-12-18T22:09:52.181Z,78.01
2018-12-18T22:12:18.278Z,78.07
2018-12-18T22:14:44.316Z,78.15
2018-12-18T22:17:10.458Z,78.16
2018-12-18T22:19:36.537Z,78.10
2018-12-18T22:22:02.599Z,78.16
2018-12-18T22:24:28.839Z,78.10
2018-12-18T22:26:54.907Z,78.16
2018-12-18T22:29:20.949Z,78.02
2018-12-18T22:31:47.217Z,78.31
2018-12-18T22:34:13.242Z,78.14
2018-12-18T22:36:39.310Z,78.22
2018-12-18T22:39:06.377Z,78.31
2018-12-18T22:41:32.569Z,78.01
2018-12-18T22:43:58.642Z,78.09
2018-12-18T22:46:24.801Z,78.17
2018-12-18T22:48:50.835Z,78.11
2018-12-18T22:51:16.969Z,78.02
2018-12-18T22:53:43.117Z,78.21
2018-12-18T22:56:09.133Z,78.35
2018-12-18T22:58:35.230Z,77.94
2018-12-18T23:01:02.005Z,78.06
2018-12-18T23:03:28.213Z,78.13
2018-12-18T23:05:54.287Z,78.05
2018-12-18T23:08:20.632Z,78.24
2018-12-18T23:10:46.670Z,78.22
2018-12-18T23:13:14.767Z,78.22
2018-12-18T23:15:41.013Z,78.25
2018-12-18T23:18:07.084Z,78.17
2018-12-18T23:20:33.137Z,78.19
2018-12-18T23:22:59.329Z,78.12
2018-12-18T23:25:25.408Z,78.18
2018-12-18T23:27:51.409Z,77.99
2018-12-18T23:30:17.580Z,78.12
2018-12-18T23:32:43.631Z,78.16
2018-12-18T23:35:09.667Z,78.08
2018-12-18T23:37:36.101Z,77.96
2018-12-18T23:40:02.576Z,78.10
2018-12-18T23:42:28.648Z,78.10
2018-12-18T23:44:54.975Z,78.22
2018-12-18T23:47:21.012Z,77.80
2018-12-18T23:49:47.098Z,78.24
2018-12-18T23:52:13.801Z,78.01
2018-12-18T23:54:39.813Z,78.01
2018-12-18T23:57:05.845Z,78.28
2018-12-18T23:59:32.073Z,78.25
